Time;durP1;ratioP1;P1;durP2;ratioP2;P2;SDS_P1;SDS_P2;PMS_P1;PMS_P2;Temp;Humidity;BMP_temperature;BMP_pressure;BME280_temperature;BME280_humidity;BME280_pressure;Samples;Min_cycle;Max_cycle;Signal;HPM_P1;HPM_P2
2021/07/18 00:01:13;;;;;;;10.38;5.90;;;19.00;91.00;;;;;;5090636;28;20078;-69
2021/07/18 00:03:39;;;;;;;11.73;5.63;;;18.90;91.00;;;;;;5090036;28;20373;-67
2021/07/18 00:06:04;;;;;;;12.10;5.55;;;18.90;91.00;;;;;;5088834;28;20106;-67
2021/07/18 00:08:30;;;;;;;9.60;5.78;;;18.80;90.90;;;;;;5084015;28;20043;-67
2021/07/18 00:10:55;;;;;;;11.88;5.95;;;18.80;90.90;;;;;;5074767;28;21820;-70
2021/07/18 00:13:21;;;;;;;11.63;5.47;;;18.80;90.90;;;;;;5090903;28;20035;-67
2021/07/18 00:15:49;;;;;;;9.18;5.10;;;18.70;90.90;;;;;;5089579;28;20111;-66
2021/07/18 00:18:15;;;;;;;10.40;5.97;;;18.70;90.90;;;;;;5090005;28;20541;-67
2021/07/18 00:20:42;;;;;;;9.40;5.40;;;18.70;90.90;;;;;;5089878;28;20073;-67
2021/07/18 00:23:07;;;;;;;7.28;5.07;;;18.60;90.90;;;;;;5090404;28;20035;-67
2021/07/18 00:25:33;;;;;;;6.75;4.93;;;18.60;90.90;;;;;;5088017;28;20031;-67
2021/07/18 00:28:00;;;;;;;6.82;5.40;;;18.60;90.90;;;;;;5072594;28;20028;-67
2021/07/18 00:30:26;;;;;;;12.38;5.78;;;18.60;90.90;;;;;;5071009;28;20502;-67
2021/07/18 00:32:52;;;;;;;10.95;5.65;;;18.50;91.00;;;;;;5072432;28;20036;-71
2021/07/18 00:35:18;;;;;;;8.02;5.30;;;18.50;91.00;;;;;;5088978;28;20510;-67
2021/07/18 00:37:43;;;;;;;9.50;5.38;;;18.50;91.00;;;;;;5089742;28;20075;-67
2021/07/18 00:40:10;;;;;;;10.35;5.18;;;18.50;90.90;;;;;;5092952;28;20036;-67
2021/07/18 00:42:36;;;;;;;7.75;5.07;;;18.40;90.90;;;;;;5089048;28;20024;-67
2021/07/18 00:45:05;;;;;;;7.85;5.45;;;18.40;91.00;;;;;;5088895;28;20020;-67
2021/07/18 00:47:32;;;;;;;11.02;5.63;;;18.40;91.00;;;;;;5077123;28;20048;-69
2021/07/18 00:50:03;;;;;;;8.90;5.65;;;18.40;91.00;;;;;;5087785;28;20063;-67
2021/07/18 00:52:29;;;;;;;7.85;5.50;;;18.30;91.00;;;;;;5089547;28;20024;-70
2021/07/18 00:54:54;;;;;;;11.05;6.00;;;18.20;91.00;;;;;;5088342;28;20050;-71
2021/07/18 00:57:21;;;;;;;8.88;5.43;;;18.30;91.00;;;;;;5089684;28;20080;-67
2021/07/18 00:59:47;;;;;;;8.70;4.93;;;18.20;91.10;;;;;;5089434;28;20099;-71
2021/07/18 01:02:13;;;;;;;7.53;5.07;;;18.20;91.10;;;;;;5089170;28;20020;-70
2021/07/18 01:04:39;;;;;;;8.13;4.90;;;18.20;91.10;;;;;;5087902;28;20035;-67
2021/07/18 01:07:06;;;;;;;11.52;4.80;;;18.20;91.10;;;;;;5082895;28;20062;-68
2021/07/18 01:09:32;;;;;;;10.73;4.80;;;18.20;91.10;;;;;;5088935;28;20116;-68
2021/07/18 01:11:58;;;;;;;6.30;4.03;;;18.10;91.10;;;;;;5071337;28;20024;-67
2021/07/18 01:14:24;;;;;;;6.57;4.75;;;18.10;91.00;;;;;;5090028;28;20012;-67
2021/07/18 01:16:50;;;;;;;12.07;4.55;;;18.10;91.00;;;;;;5088658;28;20068;-68
2021/07/18 01:19:19;;;;;;;8.90;4.40;;;18.00;91.00;;;;;;5093554;28;20387;-70
2021/07/18 01:21:59;;;;;;;8.73;4.25;;;18.00;91.00;;;;;;5093384;28;20024;-71
2021/07/18 01:24:26;;;;;;;9.05;4.32;;;18.00;90.90;;;;;;5093815;28;20100;-67
2021/07/18 01:26:53;;;;;;;9.48;3.80;;;17.90;90.90;;;;;;5092733;28;20035;-68
2021/07/18 01:29:19;;;;;;;6.60;3.65;;;17.90;90.90;;;;;;5093127;28;20024;-67
2021/07/18 01:31:45;;;;;;;8.85;3.97;;;17.90;90.90;;;;;;5093267;28;20043;-67
2021/07/18 01:34:10;;;;;;;8.80;4.05;;;17.80;90.90;;;;;;5093591;28;20028;-67
2021/07/18 01:36:36;;;;;;;5.93;3.65;;;17.80;90.90;;;;;;5092203;28;20036;-68
2021/07/18 01:39:06;;;;;;;6.40;3.70;;;17.70;90.80;;;;;;5092753;28;20060;-71
2021/07/18 01:41:32;;;;;;;10.15;4.03;;;17.70;90.80;;;;;;5092016;28;20110;-70
2021/07/18 01:43:58;;;;;;;8.27;3.80;;;17.70;90.70;;;;;;5093372;28;20115;-72
2021/07/18 01:46:23;;;;;;;6.70;3.50;;;17.60;90.70;;;;;;5092422;28;20040;-67
2021/07/18 01:48:53;;;;;;;9.07;3.33;;;17.60;90.70;;;;;;5091299;28;20035;-67
2021/07/18 01:51:23;;;;;;;5.82;3.63;;;17.60;90.70;;;;;;5092086;28;20032;-68
2021/07/18 01:53:55;;;;;;;5.32;2.92;;;17.50;90.70;;;;;;5091785;28;20024;-67
2021/07/18 01:56:21;;;;;;;;;;;17.50;90.60;;;;;;5091959;28;20097;-67
2021/07/18 01:58:51;;;;;;;7.30;3.60;;;17.40;90.60;;;;;;5092352;28;20376;-67
2021/07/18 02:01:29;;;;;;;3.13;2.85;;;17.40;90.70;;;;;;5092025;28;20028;-68
2021/07/18 02:03:56;;;;;;;5.78;2.97;;;17.40;90.70;;;;;;5074487;28;20052;-67
2021/07/18 02:06:24;;;;;;;6.72;3.45;;;17.30;90.70;;;;;;5092325;28;20047;-67
2021/07/18 02:08:50;;;;;;;5.38;3.20;;;17.30;90.60;;;;;;5088894;28;20023;-67
2021/07/18 02:11:17;;;;;;;5.97;3.10;;;17.30;90.60;;;;;;5090857;28;20058;-67
2021/07/18 02:13:46;;;;;;;7.40;3.20;;;17.30;90.80;;;;;;5092427;28;20109;-68
2021/07/18 02:16:11;;;;;;;7.38;3.20;;;17.30;90.60;;;;;;5090540;28;20020;-69
2021/07/18 02:18:37;;;;;;;7.82;3.30;;;17.30;90.60;;;;;;5092291;28;20107;-68
2021/07/18 02:21:02;;;;;;;7.50;3.58;;;17.30;90.60;;;;;;5074189;28;20384;-67
2021/07/18 02:23:28;;;;;;;5.72;3.13;;;17.20;90.50;;;;;;5092711;28;20101;-67
2021/07/18 02:25:54;;;;;;;3.95;3.28;;;17.20;90.50;;;;;;5090922;28;20076;-68
2021/07/18 02:28:19;;;;;;;5.40;3.33;;;17.20;90.60;;;;;;5072809;28;20045;-68
2021/07/18 02:30:46;;;;;;;7.65;3.50;;;17.10;90.60;;;;;;5092135;28;20028;-67
2021/07/18 02:33:12;;;;;;;5.20;3.50;;;17.10;90.60;;;;;;5091602;28;20020;-67
2021/07/18 02:35:38;;;;;;;6.80;3.65;;;17.10;90.60;;;;;;5090968;28;20081;-69
2021/07/18 02:38:03;;;;;;;7.38;3.50;;;17.00;90.60;;;;;;5091533;28;20078;-70
2021/07/18 02:40:29;;;;;;;8.20;3.78;;;17.00;90.60;;;;;;5092221;28;20032;-67
2021/07/18 02:42:55;;;;;;;4.75;3.20;;;17.00;90.60;;;;;;5090389;28;20099;-67
2021/07/18 02:45:23;;;;;;;4.45;3.13;;;17.00;90.60;;;;;;5089716;28;20409;-67
2021/07/18 02:47:49;;;;;;;6.78;3.22;;;16.90;90.70;;;;;;5091370;28;20038;-67
2021/07/18 02:50:17;;;;;;;4.85;2.97;;;16.90;90.70;;;;;;5062378;28;20028;-67
2021/07/18 02:52:44;;;;;;;5.53;3.03;;;16.90;90.60;;;;;;5087736;28;20027;-67
2021/07/18 02:55:10;;;;;;;3.17;2.78;;;16.90;90.60;;;;;;5089734;28;20102;-67
2021/07/18 02:57:36;;;;;;;3.95;2.65;;;16.90;90.60;;;;;;5090954;28;20395;-71
2021/07/18 03:00:13;;;;;;;6.03;2.78;;;16.80;90.60;;;;;;5091824;28;20035;-71
2021/07/18 03:02:41;;;;;;;3.90;2.33;;;16.80;90.50;;;;;;5073301;28;20039;-67
2021/07/18 03:05:07;;;;;;;5.95;2.25;;;16.70;90.50;;;;;;5090035;28;20134;-68
2021/07/18 03:07:33;;;;;;;3.10;2.53;;;16.70;90.50;;;;;;5090508;28;20021;-67
2021/07/18 03:09:59;;;;;;;5.55;2.38;;;16.60;90.50;;;;;;5093498;28;20027;-67
2021/07/18 03:12:25;;;;;;;5.75;2.17;;;16.60;90.50;;;;;;5091974;28;20028;-68
2021/07/18 03:14:50;;;;;;;6.03;2.50;;;16.60;90.50;;;;;;5089385;28;20070;-70
2021/07/18 03:17:16;;;;;;;2.92;1.98;;;16.60;90.40;;;;;;5090686;28;20031;-67
2021/07/18 03:19:42;;;;;;;3.60;2.13;;;16.50;90.40;;;;;;5090748;28;20032;-67
2021/07/18 03:22:07;;;;;;;4.20;2.45;;;16.40;90.50;;;;;;5090985;28;20078;-67
2021/07/18 03:24:33;;;;;;;5.10;2.20;;;16.40;90.50;;;;;;5090713;28;20031;-68
2021/07/18 03:26:59;;;;;;;5.63;2.38;;;16.40;90.50;;;;;;5090705;28;20112;-72
2021/07/18 03:29:25;;;;;;;4.63;2.28;;;16.40;90.50;;;;;;5090442;28;20055;-67
2021/07/18 03:31:50;;;;;;;5.35;2.10;;;16.40;90.50;;;;;;5082086;28;20073;-67
2021/07/18 03:34:16;;;;;;;4.80;1.83;;;16.40;90.50;;;;;;5090519;28;20028;-68
2021/07/18 03:36:41;;;;;;;5.30;2.60;;;16.40;90.50;;;;;;5089734;28;20031;-68
2021/07/18 03:39:07;;;;;;;5.38;2.22;;;16.30;90.40;;;;;;5088038;28;20028;-70
2021/07/18 03:41:32;;;;;;;2.25;1.90;;;16.30;90.50;;;;;;5090640;28;20020;-68
2021/07/18 03:43:58;;;;;;;5.60;2.15;;;16.30;90.50;;;;;;5089403;28;20059;-68
2021/07/18 03:46:24;;;;;;;3.33;2.50;;;16.30;90.60;;;;;;5089690;28;20028;-68
2021/07/18 03:48:49;;;;;;;4.68;2.10;;;16.30;90.50;;;;;;5090922;28;20028;-68
2021/07/18 03:51:15;;;;;;;3.08;2.10;;;16.30;90.50;;;;;;5078019;28;20060;-66
2021/07/18 03:53:41;;;;;;;4.22;2.42;;;16.30;90.50;;;;;;5089627;28;20027;-67
2021/07/18 03:56:08;;;;;;;2.33;2.00;;;16.30;90.50;;;;;;5092619;28;20024;-67
2021/07/18 03:58:33;;;;;;;4.25;2.17;;;16.30;90.50;;;;;;5089837;28;20024;-71
2021/07/18 04:01:00;;;;;;;5.15;2.28;;;16.30;90.50;;;;;;5072155;28;20024;-67
2021/07/18 04:03:26;;;;;;;4.82;2.47;;;16.30;90.50;;;;;;5089186;28;20119;-68
2021/07/18 04:05:52;;;;;;;2.30;2.10;;;16.30;90.50;;;;;;5089084;28;20166;-69
2021/07/18 04:08:17;;;;;;;8.88;2.13;;;16.20;90.60;;;;;;5089745;28;20040;-66
2021/07/18 04:10:43;;;;;;;3.08;2.15;;;16.20;90.90;;;;;;5085949;28;20083;-68
2021/07/18 04:13:09;;;;;;;3.20;2.42;;;16.20;90.70;;;;;;5089408;28;20020;-70
2021/07/18 04:15:34;;;;;;;4.03;2.45;;;16.20;90.70;;;;;;5088460;28;20518;-68
2021/07/18 04:18:07;;;;;;;6.57;2.60;;;16.20;90.70;;;;;;5089539;28;20035;-70
2021/07/18 04:20:33;;;;;;;2.20;2.03;;;16.20;90.80;;;;;;5088815;28;20059;-68
2021/07/18 04:22:58;;;;;;;4.32;2.13;;;16.20;91.00;;;;;;5090314;28;20557;-69
2021/07/18 04:25:24;;;;;;;4.15;2.35;;;16.20;90.80;;;;;;5088822;28;20533;-67
2021/07/18 04:27:49;;;;;;;4.45;2.10;;;16.20;90.80;;;;;;5088778;28;20035;-67
2021/07/18 04:30:15;;;;;;;4.18;2.20;;;16.20;90.70;;;;;;5089912;28;20111;-67
2021/07/18 04:32:41;;;;;;;4.85;2.08;;;16.20;90.70;;;;;;5090441;28;20031;-68
2021/07/18 04:35:07;;;;;;;3.45;2.00;;;16.20;90.70;;;;;;5088511;28;20105;-66
2021/07/18 04:37:36;;;;;;;3.70;2.30;;;16.20;90.80;;;;;;5088277;28;20422;-70
2021/07/18 04:40:01;;;;;;;4.05;2.33;;;16.30;90.80;;;;;;5071199;28;20077;-67
2021/07/18 04:42:27;;;;;;;2.85;2.00;;;16.30;90.80;;;;;;5089454;28;20460;-68
2021/07/18 04:44:52;;;;;;;4.55;1.98;;;16.30;90.80;;;;;;5087698;28;20077;-66
2021/07/18 04:47:18;;;;;;;3.80;1.85;;;16.30;91.00;;;;;;5090331;28;20038;-67
2021/07/18 04:49:43;;;;;;;4.72;2.20;;;16.30;90.80;;;;;;5067167;28;20499;-67
2021/07/18 04:52:09;;;;;;;5.20;1.75;;;16.40;90.80;;;;;;5084896;28;20526;-70
2021/07/18 04:54:35;;;;;;;3.63;2.00;;;16.40;90.80;;;;;;5091396;28;20016;-70
2021/07/18 04:57:00;;;;;;;2.08;1.60;;;16.40;90.80;;;;;;5071449;28;20035;-66
2021/07/18 04:59:26;;;;;;;2.10;1.90;;;16.50;90.80;;;;;;5089424;28;20028;-67
2021/07/18 05:01:53;;;;;;;3.13;1.80;;;16.50;90.80;;;;;;5071049;28;20032;-67
2021/07/18 05:04:19;;;;;;;2.70;1.77;;;16.50;90.80;;;;;;5089941;28;20499;-71
2021/07/18 05:06:45;;;;;;;4.50;1.70;;;16.60;91.00;;;;;;5088721;28;20035;-67
2021/07/18 05:09:10;;;;;;;3.42;1.73;;;16.60;90.70;;;;;;5100633;22;20063;-69
2021/07/18 05:11:36;;;;;;;6.15;2.17;;;16.60;90.60;;;;;;5085794;28;20491;-69
2021/07/18 05:14:01;;;;;;;4.28;1.90;;;16.50;90.60;;;;;;5087602;28;20028;-69
2021/07/18 05:16:27;;;;;;;3.67;1.80;;;16.60;90.50;;;;;;5087412;28;20035;-69
2021/07/18 05:18:52;;;;;;;3.30;1.52;;;16.60;90.60;;;;;;5089372;28;20031;-69
2021/07/18 05:21:18;;;;;;;2.60;1.73;;;16.60;90.60;;;;;;5088583;28;20099;-69
2021/07/18 05:23:44;;;;;;;4.63;1.60;;;16.60;90.40;;;;;;5089016;28;20036;-69
2021/07/18 05:26:09;;;;;;;4.43;1.70;;;16.60;90.50;;;;;;5086519;28;20040;-69
2021/07/18 05:28:35;;;;;;;2.15;1.63;;;16.70;90.50;;;;;;5088526;28;20032;-69
2021/07/18 05:31:00;;;;;;;3.60;1.45;;;16.70;90.60;;;;;;5089512;28;20468;-69
2021/07/18 05:33:26;;;;;;;3.40;1.52;;;16.80;90.60;;;;;;5079755;28;20055;-68
2021/07/18 05:35:52;;;;;;;1.50;1.40;;;16.90;90.60;;;;;;5088137;28;20028;-68
2021/07/18 05:38:18;;;;;;;6.43;1.58;;;16.90;90.60;;;;;;5088595;28;20016;-68
2021/07/18 05:40:44;;;;;;;5.03;2.30;;;17.00;90.60;;;;;;5089037;28;20526;-67
2021/07/18 05:43:09;;;;;;;1.83;1.67;;;17.00;90.50;;;;;;5089200;28;20052;-69
2021/07/18 05:45:35;;;;;;;3.70;1.83;;;17.10;90.60;;;;;;5070094;28;20540;-68
2021/07/18 05:48:00;;;;;;;2.25;1.55;;;17.10;90.60;;;;;;5088277;28;20024;-68
2021/07/18 05:50:26;;;;;;;2.85;1.50;;;17.20;90.50;;;;;;5089871;28;20032;-68
2021/07/18 05:52:52;;;;;;;2.97;1.73;;;17.20;90.50;;;;;;5083281;28;20025;-68
2021/07/18 05:55:17;;;;;;;3.67;1.90;;;17.30;90.50;;;;;;5088571;28;20024;-68
2021/07/18 05:57:43;;;;;;;2.65;1.63;;;17.30;90.40;;;;;;5087790;28;20032;-68
2021/07/18 06:00:12;;;;;;;3.85;1.42;;;17.30;90.50;;;;;;5084260;28;20073;-68
2021/07/18 06:02:38;;;;;;;5.28;1.75;;;17.40;90.50;;;;;;5075044;28;20054;-68
2021/07/18 06:05:05;;;;;;;4.45;1.40;;;17.40;90.50;;;;;;5090451;28;20501;-68
2021/07/18 06:07:30;;;;;;;3.13;1.17;;;17.50;90.40;;;;;;5091868;28;20085;-68
2021/07/18 06:09:56;;;;;;;2.20;1.65;;;17.50;90.30;;;;;;5074064;28;20064;-67
2021/07/18 06:12:22;;;;;;;5.70;1.60;;;17.50;90.30;;;;;;5091244;28;20403;-68
2021/07/18 06:14:47;;;;;;;5.78;1.70;;;17.50;90.30;;;;;;5092163;28;20024;-68
2021/07/18 06:17:14;;;;;;;2.78;1.52;;;17.60;90.40;;;;;;5096022;28;20107;-68
2021/07/18 06:19:40;;;;;;;4.38;1.60;;;17.60;90.30;;;;;;5080654;28;20064;-68
2021/07/18 06:22:06;;;;;;;2.17;1.50;;;17.60;90.30;;;;;;5093016;28;20036;-68
2021/07/18 06:24:33;;;;;;;2.05;1.45;;;17.70;90.30;;;;;;5092402;28;20411;-68
2021/07/18 06:26:59;;;;;;;3.45;1.38;;;17.80;90.40;;;;;;5090424;28;20403;-68
2021/07/18 06:29:24;;;;;;;3.22;1.50;;;17.80;90.30;;;;;;5092871;28;20035;-69
2021/07/18 06:31:50;;;;;;;2.88;1.50;;;17.90;90.40;;;;;;5092896;28;20391;-68
2021/07/18 06:34:16;;;;;;;1.88;1.55;;;18.00;90.40;;;;;;5092831;28;20525;-69
2021/07/18 06:36:42;;;;;;;2.95;1.50;;;18.00;90.40;;;;;;5091628;28;20111;-67
2021/07/18 06:39:07;;;;;;;6.53;1.50;;;18.10;90.40;;;;;;5091735;28;20388;-68
2021/07/18 06:41:33;;;;;;;6.30;1.60;;;18.20;90.40;;;;;;5074321;28;20024;-69
2021/07/18 06:43:59;;;;;;;3.60;1.40;;;18.30;90.30;;;;;;5092628;28;20055;-69
2021/07/18 06:46:24;;;;;;;5.03;1.63;;;18.40;90.20;;;;;;5091390;28;20031;-69
2021/07/18 06:48:50;;;;;;;2.55;1.40;;;18.50;90.20;;;;;;5093109;28;20027;-68
2021/07/18 06:51:16;;;;;;;4.28;1.40;;;18.60;90.10;;;;;;5091501;28;20031;-69
2021/07/18 06:53:41;;;;;;;3.45;1.42;;;18.70;89.70;;;;;;5088288;28;20498;-68
2021/07/18 06:56:07;;;;;;;2.58;1.70;;;18.90;89.50;;;;;;5069444;28;20427;-69
2021/07/18 06:58:32;;;;;;;3.35;1.30;;;19.00;89.50;;;;;;5090625;28;20059;-67
2021/07/18 07:00:58;;;;;;;2.83;1.70;;;19.20;89.20;;;;;;5090305;28;20047;-69
2021/07/18 07:03:23;;;;;;;6.93;1.70;;;19.30;89.10;;;;;;5091348;28;20042;-69
2021/07/18 07:05:49;;;;;;;3.33;1.73;;;19.40;89.10;;;;;;5091068;28;20036;-68
2021/07/18 07:08:14;;;;;;;3.60;1.70;;;19.50;89.10;;;;;;5091026;28;20032;-68
2021/07/18 07:10:41;;;;;;;2.63;1.38;;;19.70;88.80;;;;;;5092415;28;20054;-70
2021/07/18 07:13:07;;;;;;;2.13;1.30;;;19.90;88.60;;;;;;5075090;28;20035;-69
2021/07/18 07:15:33;;;;;;;5.68;1.40;;;20.00;87.90;;;;;;5073588;28;20772;-70
2021/07/18 07:17:58;;;;;;;2.13;1.35;;;20.30;87.50;;;;;;5094649;28;20028;-70
2021/07/18 07:20:24;;;;;;;2.38;1.38;;;20.40;87.30;;;;;;5094317;28;20547;-68
2021/07/18 07:22:50;;;;;;;2.63;1.38;;;20.70;87.00;;;;;;5094481;28;20067;-68
2021/07/18 07:25:16;;;;;;;1.70;1.38;;;20.90;86.60;;;;;;5089889;28;20383;-68
2021/07/18 07:27:42;;;;;;;3.22;1.40;;;21.10;86.10;;;;;;5092578;28;20031;-68
2021/07/18 07:30:09;;;;;;;3.78;1.48;;;21.30;85.70;;;;;;5073896;28;20035;-68
2021/07/18 07:32:36;;;;;;;3.33;1.38;;;21.50;85.30;;;;;;5091965;28;20392;-68
2021/07/18 07:35:04;;;;;;;6.22;1.55;;;21.70;84.70;;;;;;5091161;28;20016;-68
2021/07/18 07:37:30;;;;;;;6.95;1.50;;;21.90;84.30;;;;;;5094594;28;20036;-68
2021/07/18 07:39:55;;;;;;;4.18;1.33;;;22.10;84.00;;;;;;5097788;28;20020;-68
2021/07/18 07:42:22;;;;;;;3.38;1.30;;;22.30;83.50;;;;;;5092156;28;20060;-68
2021/07/18 07:44:48;;;;;;;2.42;1.50;;;22.50;82.80;;;;;;5091111;28;20054;-68
2021/07/18 07:47:15;;;;;;;5.10;1.50;;;22.70;82.10;;;;;;5091870;28;20020;-68
2021/07/18 07:49:42;;;;;;;9.07;1.55;;;22.90;81.80;;;;;;5091785;28;20027;-68
2021/07/18 07:52:09;;;;;;;3.95;1.58;;;23.20;81.50;;;;;;5091441;28;20032;-68
2021/07/18 07:54:34;;;;;;;3.60;1.50;;;23.60;80.80;;;;;;5085691;28;20027;-67
2021/07/18 07:57:00;;;;;;;3.47;1.55;;;23.90;79.70;;;;;;5091559;28;20032;-67
2021/07/18 07:59:25;;;;;;;3.15;1.33;;;24.20;78.90;;;;;;5091938;28;20376;-67
2021/07/18 08:01:51;;;;;;;2.75;1.40;;;24.40;78.30;;;;;;5091824;28;20051;-68
2021/07/18 08:04:16;;;;;;;4.45;1.20;;;24.60;77.30;;;;;;5091216;28;20128;-68
2021/07/18 08:06:42;;;;;;;4.82;1.40;;;24.90;76.90;;;;;;5090393;28;20036;-68
2021/07/18 08:09:09;;;;;;;4.50;1.70;;;25.10;76.10;;;;;;5091131;28;20514;-67
2021/07/18 08:11:34;;;;;;;1.95;1.15;;;25.30;75.80;;;;;;5091309;28;20487;-68
2021/07/18 08:14:00;;;;;;;3.92;1.33;;;25.60;74.80;;;;;;5091640;28;20105;-67
2021/07/18 08:16:25;;;;;;;5.82;1.50;;;25.80;74.40;;;;;;5090786;28;20035;-68
2021/07/18 08:18:51;;;;;;;3.60;1.63;;;26.10;73.90;;;;;;5089162;28;20027;-68
2021/07/18 08:21:16;;;;;;;4.82;1.17;;;26.40;73.50;;;;;;5091191;28;20114;-68
2021/07/18 08:23:43;;;;;;;2.22;1.27;;;26.60;72.70;;;;;;5091281;28;20032;-68
2021/07/18 08:26:09;;;;;;;3.17;1.33;;;26.70;71.90;;;;;;5089693;28;20054;-68
2021/07/18 08:28:38;;;;;;;4.72;1.63;;;26.90;71.60;;;;;;5091287;28;20032;-68
2021/07/18 08:31:03;;;;;;;9.50;1.60;;;27.10;71.70;;;;;;5091276;28;20496;-68
2021/07/18 08:33:29;;;;;;;5.25;1.63;;;27.30;71.10;;;;;;5091230;28;20031;-68
2021/07/18 08:35:56;;;;;;;5.63;1.33;;;27.60;70.20;;;;;;5090027;28;20468;-68
2021/07/18 08:38:21;;;;;;;4.03;1.20;;;27.80;69.00;;;;;;5090823;28;20020;-68
2021/07/18 08:40:49;;;;;;;5.53;1.33;;;27.90;68.30;;;;;;5091061;28;20387;-68
2021/07/18 08:43:14;;;;;;;4.70;1.35;;;28.20;68.10;;;;;;5091276;28;20024;-68
2021/07/18 08:45:40;;;;;;;5.00;1.60;;;28.60;67.30;;;;;;5089911;28;20035;-68
2021/07/18 08:48:08;;;;;;;6.45;1.80;;;29.00;66.40;;;;;;5090950;28;20475;-68
2021/07/18 08:50:34;;;;;;;2.67;1.30;;;29.30;65.00;;;;;;5090856;28;20024;-67
2021/07/18 08:53:00;;;;;;;6.40;1.50;;;29.70;64.10;;;;;;5091093;28;20035;-67
2021/07/18 08:55:26;;;;;;;5.50;1.08;;;29.90;62.30;;;;;;5087216;28;20032;-67
2021/07/18 08:57:53;;;;;;;5.03;1.25;;;30.20;61.70;;;;;;5090843;28;20043;-67
2021/07/18 09:00:20;;;;;;;1.67;1.17;;;30.60;60.70;;;;;;5090409;28;20066;-68
2021/07/18 09:02:45;;;;;;;4.32;1.30;;;31.00;60.10;;;;;;5084989;28;20381;-68
2021/07/18 09:05:11;;;;;;;4.50;1.35;;;31.40;58.00;;;;;;5089379;28;20605;-68
2021/07/18 09:07:51;;;;;;;5.05;1.48;;;31.70;57.20;;;;;;5088982;28;20035;-68
2021/07/18 09:10:28;;;;;;;3.85;1.30;;;32.10;56.80;;;;;;5090173;28;20028;-68
2021/07/18 09:13:09;;;;;;;4.93;1.10;;;32.50;55.60;;;;;;5090609;28;20035;-68
2021/07/18 09:15:41;;;;;;;;;;;32.80;55.30;;;;;;5072056;28;20024;-68
2021/07/18 09:18:12;;;;;;;3.00;1.30;;;33.30;57.40;;;;;;5090100;28;20431;-68
2021/07/18 09:20:44;;;;;;;2.70;1.10;;;33.60;54.70;;;;;;5086253;28;20235;-68
2021/07/18 09:23:18;;;;;;;3.42;1.20;;;33.80;54.00;;;;;;5094274;28;20491;-68
2021/07/18 09:25:45;;;;;;;5.72;1.50;;;34.10;53.30;;;;;;5072702;28;20036;-68
2021/07/18 09:28:16;;;;;;;4.65;1.23;;;34.30;53.40;;;;;;5093487;28;20043;-68
2021/07/18 09:30:42;;;;;;;6.63;3.38;;;34.20;52.20;;;;;;5091061;28;20153;-68
2021/07/18 09:33:26;;;;;;;3.13;1.27;;;34.50;52.40;;;;;;5090821;28;20021;-68
2021/07/18 09:36:12;;;;;;;2.53;1.15;;;34.80;52.30;;;;;;5089917;28;20024;-68
2021/07/18 09:38:38;;;;;;;6.72;3.08;;;35.20;52.50;;;;;;5092583;28;20066;-68
2021/07/18 09:41:04;;;;;;;3.33;1.80;;;35.60;51.40;;;;;;5094532;28;20020;-68
2021/07/18 09:43:30;;;;;;;6.38;1.50;;;35.90;50.70;;;;;;5094728;28;20027;-68
2021/07/18 09:46:00;;;;;;;4.38;1.67;;;36.00;49.80;;;;;;5093472;28;20021;-68
2021/07/18 09:48:40;;;;;;;2.97;1.60;;;35.40;49.10;;;;;;5094599;28;20044;-69
2021/07/18 09:51:08;;;;;;;3.70;1.40;;;35.10;49.80;;;;;;5094325;28;20448;-68
2021/07/18 09:53:34;;;;;;;9.57;1.98;;;35.00;49.80;;;;;;5094372;28;20016;-68
2021/07/18 09:56:04;;;;;;;5.40;1.48;;;35.00;50.40;;;;;;5074873;28;20069;-68
2021/07/18 09:58:31;;;;;;;4.45;1.85;;;35.00;50.60;;;;;;5094140;28;20417;-68
2021/07/18 10:00:59;;;;;;;4.95;1.83;;;35.00;50.50;;;;;;5094101;28;20032;-68
2021/07/18 10:03:27;;;;;;;3.13;1.90;;;34.80;50.50;;;;;;5094309;28;20031;-68
2021/07/18 10:06:05;;;;;;;7.25;1.88;;;34.70;50.50;;;;;;5074673;28;20036;-68
2021/07/18 10:08:31;;;;;;;4.28;1.60;;;34.50;51.10;;;;;;5093552;28;20038;-69
2021/07/18 10:10:56;;;;;;;4.22;1.42;;;34.30;50.90;;;;;;5075577;28;20032;-69
2021/07/18 10:13:22;;;;;;;5.03;1.52;;;34.20;50.90;;;;;;5093990;28;20036;-68
2021/07/18 10:15:48;;;;;;;3.95;1.50;;;34.10;51.40;;;;;;5092662;28;20020;-68
2021/07/18 10:18:14;;;;;;;4.90;1.77;;;33.90;51.30;;;;;;5093850;28;20069;-68
2021/07/18 10:20:40;;;;;;;4.75;1.55;;;33.60;52.00;;;;;;5093675;28;20032;-68
2021/07/18 10:23:06;;;;;;;2.95;1.50;;;33.30;51.80;;;;;;5093657;28;20069;-68
2021/07/18 10:25:32;;;;;;;3.22;1.92;;;33.10;51.40;;;;;;5086306;28;20032;-68
2021/07/18 10:27:59;;;;;;;2.47;1.60;;;32.80;52.20;;;;;;5093257;28;20388;-68
2021/07/18 10:30:25;;;;;;;2.95;1.70;;;32.60;51.60;;;;;;5093404;28;20028;-68
2021/07/18 10:32:54;;;;;;;8.20;2.13;;;32.50;51.90;;;;;;5093588;28;20036;-68
2021/07/18 10:35:25;;;;;;;3.83;1.70;;;32.40;52.20;;;;;;5092314;28;20024;-68
2021/07/18 10:37:50;;;;;;;3.72;1.85;;;32.40;52.70;;;;;;5093310;28;20022;-68
2021/07/18 10:40:21;;;;;;;3.72;2.00;;;32.30;53.50;;;;;;5093197;28;20020;-68
2021/07/18 10:42:48;;;;;;;;;;;32.10;53.10;;;;;;5093950;28;20020;-68
2021/07/18 10:45:24;;;;;;;6.80;4.90;;;31.90;55.00;;;;;;5074303;28;19911;-68
2021/07/18 10:47:56;;;;;;;6.82;2.10;;;31.60;53.90;;;;;;5093337;28;20016;-68
2021/07/18 10:50:43;;;;;;;4.28;2.47;;;31.40;55.10;;;;;;5107438;28;20012;-69
2021/07/18 10:53:21;;;;;;;3.97;2.55;;;31.20;55.30;;;;;;5113469;28;20053;-69
2021/07/18 10:55:48;;;;;;;6.05;3.10;;;31.10;54.20;;;;;;5112561;28;20027;-68
2021/07/18 10:58:40;;;;;;;7.50;3.17;;;30.90;53.70;;;;;;5113361;28;20028;-68
2021/07/18 11:01:08;;;;;;;6.63;2.83;;;30.60;54.10;;;;;;5072851;28;20052;-68
2021/07/18 11:03:39;;;;;;;3.38;2.55;;;30.40;55.00;;;;;;5072480;28;20056;-68
2021/07/18 11:06:20;;;;;;;7.65;4.07;;;30.20;54.90;;;;;;5071810;28;20104;-68
2021/07/18 11:09:08;;;;;;;3.37;2.50;;;30.10;54.70;;;;;;5160751;22;20048;-67
2021/07/18 11:11:46;;;;;;;3.83;2.40;;;29.90;54.70;;;;;;5096041;28;20028;-68
2021/07/18 11:14:35;;;;;;;4.60;2.70;;;29.70;54.90;;;;;;5074166;28;20086;-67
2021/07/18 11:17:06;;;;;;;6.13;2.50;;;29.40;56.80;;;;;;5072091;28;20074;-67
2021/07/18 11:19:35;;;;;;;4.97;2.90;;;29.30;56.00;;;;;;5072463;28;20021;-68
2021/07/18 11:22:02;;;;;;;3.33;2.72;;;29.20;55.40;;;;;;5072633;28;20119;-68
2021/07/18 11:24:53;;;;;;;5.05;3.33;;;29.10;56.10;;;;;;5051642;28;20384;-67
2021/07/18 11:27:34;;;;;;;5.88;3.22;;;28.90;55.90;;;;;;5069640;28;20388;-68
2021/07/18 11:30:04;;;;;;;4.00;3.22;;;28.80;58.40;;;;;;5072319;28;20132;-68
2021/07/18 11:32:32;;;;;;;48.88;39.83;;;28.80;56.80;;;;;;5072183;28;20031;-69
2021/07/18 11:34:59;;;;;;;7.20;4.68;;;28.80;57.70;;;;;;5070860;28;20017;-69
2021/07/18 11:37:31;;;;;;;5.97;3.20;;;28.70;56.50;;;;;;5053971;28;20031;-67
2021/07/18 11:40:03;;;;;;;7.80;3.70;;;28.70;56.30;;;;;;5071936;28;20024;-67
2021/07/18 11:42:28;;;;;;;7.68;3.85;;;28.70;56.80;;;;;;5071796;28;20055;-67
2021/07/18 11:44:54;;;;;;;6.18;3.85;;;28.70;57.50;;;;;;5053053;28;20389;-66
2021/07/18 11:47:20;;;;;;;6.32;3.70;;;28.70;57.10;;;;;;5053837;28;20028;-67
2021/07/18 11:49:47;;;;;;;9.80;4.30;;;28.70;56.60;;;;;;5072049;28;20393;-68
2021/07/18 11:52:15;;;;;;;7.90;4.47;;;28.70;58.10;;;;;;5071892;28;20021;-67
2021/07/18 11:54:42;;;;;;;6.45;3.97;;;28.80;58.50;;;;;;5070656;28;20025;-67
2021/07/18 11:57:13;;;;;;;7.43;4.30;;;28.80;58.00;;;;;;5071649;28;20024;-67
2021/07/18 11:59:40;;;;;;;;;;;28.80;57.20;;;;;;5072197;28;20048;-67
2021/07/18 12:02:06;;;;;;;10.05;3.90;;;28.80;58.20;;;;;;5070971;28;20022;-67
2021/07/18 12:04:32;;;;;;;5.75;4.65;;;29.00;58.60;;;;;;5071151;28;20388;-67
2021/07/18 12:07:01;;;;;;;7.55;4.10;;;29.00;59.10;;;;;;5071372;28;20076;-69
2021/07/18 12:09:31;;;;;;;10.05;5.15;;;29.10;58.10;;;;;;5071211;28;20036;-69
2021/07/18 12:11:59;;;;;;;8.50;5.50;;;29.20;57.70;;;;;;5071312;28;20456;-68
2021/07/18 12:14:27;;;;;;;10.30;4.82;;;29.20;59.10;;;;;;5071279;28;20027;-68
2021/07/18 12:16:58;;;;;;;7.95;4.63;;;29.30;57.40;;;;;;5070689;28;20051;-68
2021/07/18 12:19:25;;;;;;;8.53;4.67;;;29.30;56.30;;;;;;5071463;28;20036;-68
2021/07/18 12:21:52;;;;;;;11.07;4.93;;;29.30;56.60;;;;;;5071419;28;20107;-68
2021/07/18 12:24:22;;;;;;;7.95;4.78;;;29.30;56.80;;;;;;5071089;28;20063;-69
2021/07/18 12:26:52;;;;;;;11.05;5.00;;;29.40;56.10;;;;;;5069686;28;20480;-69
2021/07/18 12:29:18;;;;;;;12.30;6.00;;;29.30;56.20;;;;;;5053371;28;20033;-69
2021/07/18 12:31:47;;;;;;;10.57;6.75;;;29.40;56.30;;;;;;5071251;28;20029;-69
2021/07/18 12:34:14;;;;;;;9.02;5.75;;;29.40;56.20;;;;;;5053274;28;20020;-69
2021/07/18 12:37:09;;;;;;;11.55;6.55;;;29.50;55.60;;;;;;5070045;28;20017;-69
2021/07/18 12:39:47;;;;;;;9.65;5.63;;;29.50;56.90;;;;;;5070701;28;20052;-69
2021/07/18 12:42:13;;;;;;;9.45;5.95;;;29.50;57.60;;;;;;5070985;28;20477;-69
2021/07/18 12:44:48;;;;;;;11.13;5.53;;;29.50;58.00;;;;;;5069982;28;20028;-69
2021/07/18 12:47:19;;;;;;;9.20;5.95;;;29.60;56.70;;;;;;5070997;28;20016;-69
2021/07/18 12:49:45;;;;;;;9.05;6.15;;;29.60;56.30;;;;;;5071014;28;20436;-69